sensor_id;sensor_type;location;lat;lon;timestamp;temperature;humidity
24085;DHT22;12268;52.110;5.548;2023-03-01T00:01:59;1.20;99.90
24085;DHT22;12268;52.110;5.548;2023-03-01T00:04:25;1.30;99.90
24085;DHT22;12268;52.110;5.548;2023-03-01T00:06:51;1.40;99.90
24085;DHT22;12268;52.110;5.548;2023-03-01T00:09:16;1.30;99.90
24085;DHT22;12268;52.110;5.548;2023-03-01T00:11:44;1.30;99.90
24085;DHT22;12268;52.110;5.548;2023-03-01T00:14:09;1.20;99.90
24085;DHT22;12268;52.110;5.548;2023-03-01T00:16:45;1.30;99.90
24085;DHT22;12268;52.110;5.548;2023-03-01T00:19:16;1.30;99.90
24085;DHT22;12268;52.110;5.548;2023-03-01T00:21:42;1.20;99.90
24085;DHT22;12268;52.110;5.548;2023-03-01T00:24:08;1.30;99.90
24085;DHT22;12268;52.110;5.548;2023-03-01T00:26:34;1.30;99.90
24085;DHT22;12268;52.110;5.548;2023-03-01T00:29:00;1.20;99.90
24085;DHT22;12268;52.110;5.548;2023-03-01T00:31:28;1.30;99.90
24085;DHT22;12268;52.110;5.548;2023-03-01T00:33:59;1.30;99.90
24085;DHT22;12268;52.110;5.548;2023-03-01T00:36:29;1.30;99.90
24085;DHT22;12268;52.110;5.548;2023-03-01T00:38:55;1.30;99.90
24085;DHT22;12268;52.110;5.548;2023-03-01T00:41:22;1.40;99.90
24085;DHT22;12268;52.110;5.548;2023-03-01T00:43:49;1.30;99.90
24085;DHT22;12268;52.110;5.548;2023-03-01T00:46:17;1.40;99.90
24085;DHT22;12268;52.110;5.548;2023-03-01T00:48:43;1.60;99.90
24085;DHT22;12268;52.110;5.548;2023-03-01T00:51:17;1.40;99.90
24085;DHT22;12268;52.110;5.548;2023-03-01T00:53:43;1.30;99.90
24085;DHT22;12268;52.110;5.548;2023-03-01T00:56:11;1.40;99.90
24085;DHT22;12268;52.110;5.548;2023-03-01T00:58:37;1.60;99.90
24085;DHT22;12268;52.110;5.548;2023-03-01T01:01:14;1.40;99.90
24085;DHT22;12268;52.110;5.548;2023-03-01T01:03:47;1.40;99.90
24085;DHT22;12268;52.110;5.548;2023-03-01T01:06:18;1.70;99.90
24085;DHT22;12268;52.110;5.548;2023-03-01T01:08:44;1.80;99.90
24085;DHT22;12268;52.110;5.548;2023-03-01T01:11:10;1.80;99.90
24085;DHT22;12268;52.110;5.548;2023-03-01T01:13:37;1.80;99.90
24085;DHT22;12268;52.110;5.548;2023-03-01T01:16:03;1.90;99.90
24085;DHT22;12268;52.110;5.548;2023-03-01T01:18:29;1.90;99.90
24085;DHT22;12268;52.110;5.548;2023-03-01T01:31:16;2.20;99.90
24085;DHT22;12268;52.110;5.548;2023-03-01T01:33:42;2.20;99.90
24085;DHT22;12268;52.110;5.548;2023-03-01T01:36:08;2.10;99.90
24085;DHT22;12268;52.110;5.548;2023-03-01T01:38:35;2.10;99.90
24085;DHT22;12268;52.110;5.548;2023-03-01T01:41:02;2.10;99.90
24085;DHT22;12268;52.110;5.548;2023-03-01T01:43:30;2.00;99.90
24085;DHT22;12268;52.110;5.548;2023-03-01T01:46:02;1.90;99.90
24085;DHT22;12268;52.110;5.548;2023-03-01T01:48:38;1.80;99.90
24085;DHT22;12268;52.110;5.548;2023-03-01T01:53:42;1.70;99.90
24085;DHT22;12268;52.110;5.548;2023-03-01T01:56:10;1.70;99.90
24085;DHT22;12268;52.110;5.548;2023-03-01T01:58:37;1.70;99.90
24085;DHT22;12268;52.110;5.548;2023-03-01T02:01:03;1.60;99.90
24085;DHT22;12268;52.110;5.548;2023-03-01T02:03:31;1.60;99.90
24085;DHT22;12268;52.110;5.548;2023-03-01T02:06:12;1.60;99.90
24085;DHT22;12268;52.110;5.548;2023-03-01T02:08:42;1.60;99.90
24085;DHT22;12268;52.110;5.548;2023-03-01T02:11:08;1.60;99.90
24085;DHT22;12268;52.110;5.548;2023-03-01T02:13:36;1.70;99.90
24085;DHT22;12268;52.110;5.548;2023-03-01T02:16:08;1.80;99.90
24085;DHT22;12268;52.110;5.548;2023-03-01T02:18:34;1.80;99.90
24085;DHT22;12268;52.110;5.548;2023-03-01T02:23:25;1.90;99.90
24085;DHT22;12268;52.110;5.548;2023-03-01T02:28:32;1.90;99.90
24085;DHT22;12268;52.110;5.548;2023-03-01T02:30:59;1.80;99.90
24085;DHT22;12268;52.110;5.548;2023-03-01T02:33:43;1.80;99.90
24085;DHT22;12268;52.110;5.548;2023-03-01T02:36:15;1.60;99.90
24085;DHT22;12268;52.110;5.548;2023-03-01T02:38:42;1.40;99.90
24085;DHT22;12268;52.110;5.548;2023-03-01T02:41:12;1.30;99.90
24085;DHT22;12268;52.110;5.548;2023-03-01T02:43:38;1.40;99.90
24085;DHT22;12268;52.110;5.548;2023-03-01T02:46:13;1.30;99.90
24085;DHT22;12268;52.110;5.548;2023-03-01T02:48:42;1.20;99.90
24085;DHT22;12268;52.110;5.548;2023-03-01T02:56:45;1.20;99.90
24085;DHT22;12268;52.110;5.548;2023-03-01T02:59:15;1.20;99.90
24085;DHT22;12268;52.110;5.548;2023-03-01T03:01:41;1.00;99.90
24085;DHT22;12268;52.110;5.548;2023-03-01T03:04:09;1.00;99.90
24085;DHT22;12268;52.110;5.548;2023-03-01T03:06:36;1.10;99.90
24085;DHT22;12268;52.110;5.548;2023-03-01T03:09:04;1.00;99.90
24085;DHT22;12268;52.110;5.548;2023-03-01T03:11:29;1.10;99.90
24085;DHT22;12268;52.110;5.548;2023-03-01T03:13:56;1.00;99.90
24085;DHT22;12268;52.110;5.548;2023-03-01T03:16:23;0.90;99.90
24085;DHT22;12268;52.110;5.548;2023-03-01T03:18:50;0.90;99.90
24085;DHT22;12268;52.110;5.548;2023-03-01T03:21:15;1.10;99.90
24085;DHT22;12268;52.110;5.548;2023-03-01T03:23:41;1.10;99.90
24085;DHT22;12268;52.110;5.548;2023-03-01T03:26:07;1.10;99.90
24085;DHT22;12268;52.110;5.548;2023-03-01T03:28:34;1.10;99.90
24085;DHT22;12268;52.110;5.548;2023-03-01T03:31:00;0.90;99.90
24085;DHT22;12268;52.110;5.548;2023-03-01T03:33:32;0.80;99.90
24085;DHT22;12268;52.110;5.548;2023-03-01T03:35:58;0.80;99.90
24085;DHT22;12268;52.110;5.548;2023-03-01T03:38:24;0.80;99.90
24085;DHT22;12268;52.110;5.548;2023-03-01T03:40:51;0.90;99.90
24085;DHT22;12268;52.110;5.548;2023-03-01T03:43:19;0.80;99.90
24085;DHT22;12268;52.110;5.548;2023-03-01T03:45:47;0.70;99.90
24085;DHT22;12268;52.110;5.548;2023-03-01T03:48:13;0.90;99.90
24085;DHT22;12268;52.110;5.548;2023-03-01T03:50:40;0.80;99.90
24085;DHT22;12268;52.110;5.548;2023-03-01T03:53:09;0.70;99.90
24085;DHT22;12268;52.110;5.548;2023-03-01T03:55:35;0.60;99.90
24085;DHT22;12268;52.110;5.548;2023-03-01T03:58:02;0.50;99.90
24085;DHT22;12268;52.110;5.548;2023-03-01T04:00:37;0.40;99.90
24085;DHT22;12268;52.110;5.548;2023-03-01T04:03:03;0.40;99.90
24085;DHT22;12268;52.110;5.548;2023-03-01T04:05:28;0.40;99.90
24085;DHT22;12268;52.110;5.548;2023-03-01T04:07:54;0.50;99.90
24085;DHT22;12268;52.110;5.548;2023-03-01T04:10:30;0.40;99.90
24085;DHT22;12268;52.110;5.548;2023-03-01T04:12:56;0.40;99.90
24085;DHT22;12268;52.110;5.548;2023-03-01T04:15:23;0.50;99.90
24085;DHT22;12268;52.110;5.548;2023-03-01T04:17:50;0.50;99.90
24085;DHT22;12268;52.110;5.548;2023-03-01T04:20:19;0.50;99.90
24085;DHT22;12268;52.110;5.548;2023-03-01T04:22:51;0.50;99.90
24085;DHT22;12268;52.110;5.548;2023-03-01T04:25:18;0.50;99.90
24085;DHT22;12268;52.110;5.548;2023-03-01T04:27:43;0.50;99.90
24085;DHT22;12268;52.110;5.548;2023-03-01T04:30:09;0.60;99.90
24085;DHT22;12268;52.110;5.548;2023-03-01T04:32:35;0.60;99.90
24085;DHT22;12268;52.110;5.548;2023-03-01T04:35:01;0.60;99.90
24085;DHT22;12268;52.110;5.548;2023-03-01T04:37:26;0.60;99.90
24085;DHT22;12268;52.110;5.548;2023-03-01T04:39:52;0.60;99.90
24085;DHT22;12268;52.110;5.548;2023-03-01T04:42:18;0.70;99.90
24085;DHT22;12268;52.110;5.548;2023-03-01T04:44:44;0.60;99.90
24085;DHT22;12268;52.110;5.548;2023-03-01T04:47:10;0.80;99.90
24085;DHT22;12268;52.110;5.548;2023-03-01T04:49:36;0.80;99.90
24085;DHT22;12268;52.110;5.548;2023-03-01T04:52:01;0.90;99.90
24085;DHT22;12268;52.110;5.548;2023-03-01T04:54:31;1.00;99.90
24085;DHT22;12268;52.110;5.548;2023-03-01T04:56:57;1.00;99.90
24085;DHT22;12268;52.110;5.548;2023-03-01T04:59:23;0.90;99.90
24085;DHT22;12268;52.110;5.548;2023-03-01T05:01:49;0.90;99.90
24085;DHT22;12268;52.110;5.548;2023-03-01T05:04:15;0.80;99.90
24085;DHT22;12268;52.110;5.548;2023-03-01T05:06:41;0.80;99.90
24085;DHT22;12268;52.110;5.548;2023-03-01T05:09:07;0.80;99.90
24085;DHT22;12268;52.110;5.548;2023-03-01T05:11:32;0.70;99.90
24085;DHT22;12268;52.110;5.548;2023-03-01T05:14:02;0.60;99.90
24085;DHT22;12268;52.110;5.548;2023-03-01T05:16:27;0.50;99.90
24085;DHT22;12268;52.110;5.548;2023-03-01T05:18:53;0.60;99.90
24085;DHT22;12268;52.110;5.548;2023-03-01T05:21:20;0.60;99.90
24085;DHT22;12268;52.110;5.548;2023-03-01T05:23:46;0.60;99.90
24085;DHT22;12268;52.110;5.548;2023-03-01T05:26:12;0.80;99.90
24085;DHT22;12268;52.110;5.548;2023-03-01T05:28:38;0.50;99.90
24085;DHT22;12268;52.110;5.548;2023-03-01T05:31:05;0.30;99.90
24085;DHT22;12268;52.110;5.548;2023-03-01T05:33:38;0.30;99.90
24085;DHT22;12268;52.110;5.548;2023-03-01T05:36:06;0.30;99.90
24085;DHT22;12268;52.110;5.548;2023-03-01T05:38:32;0.50;99.90
24085;DHT22;12268;52.110;5.548;2023-03-01T05:40:58;0.40;99.90
24085;DHT22;12268;52.110;5.548;2023-03-01T05:43:23;0.30;99.90
24085;DHT22;12268;52.110;5.548;2023-03-01T05:45:49;0.20;99.90
24085;DHT22;12268;52.110;5.548;2023-03-01T05:48:14;0.10;99.90
24085;DHT22;12268;52.110;5.548;2023-03-01T05:50:42;0.10;99.90
24085;DHT22;12268;52.110;5.548;2023-03-01T05:53:26;0.10;99.90
24085;DHT22;12268;52.110;5.548;2023-03-01T05:55:51;0.00;99.90
24085;DHT22;12268;52.110;5.548;2023-03-01T05:58:19;0.10;99.90
24085;DHT22;12268;52.110;5.548;2023-03-01T06:00:46;0.00;99.90
24085;DHT22;12268;52.110;5.548;2023-03-01T06:03:14;-0.10;99.90
24085;DHT22;12268;52.110;5.548;2023-03-01T06:05:40;-0.20;99.90
24085;DHT22;12268;52.110;5.548;2023-03-01T06:08:06;-0.10;99.90
24085;DHT22;12268;52.110;5.548;2023-03-01T06:10:32;-0.20;99.90
24085;DHT22;12268;52.110;5.548;2023-03-01T06:12:58;-0.20;99.90
24085;DHT22;12268;52.110;5.548;2023-03-01T06:15:24;-0.20;99.90
24085;DHT22;12268;52.110;5.548;2023-03-01T06:17:50;-0.10;99.90
24085;DHT22;12268;52.110;5.548;2023-03-01T06:20:19;-0.10;99.90
24085;DHT22;12268;52.110;5.548;2023-03-01T06:22:45;-0.10;99.90
24085;DHT22;12268;52.110;5.548;2023-03-01T06:25:13;-0.30;99.90
24085;DHT22;12268;52.110;5.548;2023-03-01T06:27:39;-0.30;99.90
24085;DHT22;12268;52.110;5.548;2023-03-01T06:30:06;-0.20;99.90
24085;DHT22;12268;52.110;5.548;2023-03-01T06:32:32;-0.10;99.90
24085;DHT22;12268;52.110;5.548;2023-03-01T06:34:57;0.00;99.90
24085;DHT22;12268;52.110;5.548;2023-03-01T06:37:24;0.10;99.90
24085;DHT22;12268;52.110;5.548;2023-03-01T06:39:50;0.10;99.90
24085;DHT22;12268;52.110;5.548;2023-03-01T06:42:15;0.10;99.90
24085;DHT22;12268;52.110;5.548;2023-03-01T06:44:41;0.20;99.90
24085;DHT22;12268;52.110;5.548;2023-03-01T06:47:07;0.30;99.90
24085;DHT22;12268;52.110;5.548;2023-03-01T06:49:32;0.30;99.90
24085;DHT22;12268;52.110;5.548;2023-03-01T06:51:58;0.50;99.90
24085;DHT22;12268;52.110;5.548;2023-03-01T06:54:24;0.90;99.90
24085;DHT22;12268;52.110;5.548;2023-03-01T06:56:50;1.20;99.90
24085;DHT22;12268;52.110;5.548;2023-03-01T06:59:16;1.50;99.90
24085;DHT22;12268;52.110;5.548;2023-03-01T07:01:41;1.90;99.90
24085;DHT22;12268;52.110;5.548;2023-03-01T07:04:07;2.30;99.90
24085;DHT22;12268;52.110;5.548;2023-03-01T07:06:33;2.50;99.90
24085;DHT22;12268;52.110;5.548;2023-03-01T07:08:58;2.40;99.90
24085;DHT22;12268;52.110;5.548;2023-03-01T07:11:24;2.60;99.90
24085;DHT22;12268;52.110;5.548;2023-03-01T07:13:49;2.90;99.90
24085;DHT22;12268;52.110;5.548;2023-03-01T07:16:15;3.10;99.90
24085;DHT22;12268;52.110;5.548;2023-03-01T07:18:41;3.10;99.90
24085;DHT22;12268;52.110;5.548;2023-03-01T07:21:08;3.20;99.90
24085;DHT22;12268;52.110;5.548;2023-03-01T07:23:34;3.20;99.90
24085;DHT22;12268;52.110;5.548;2023-03-01T07:26:00;3.30;99.90
24085;DHT22;12268;52.110;5.548;2023-03-01T07:28:26;3.30;99.90
24085;DHT22;12268;52.110;5.548;2023-03-01T07:30:51;3.30;99.90
24085;DHT22;12268;52.110;5.548;2023-03-01T07:33:17;3.40;99.90
24085;DHT22;12268;52.110;5.548;2023-03-01T07:35:43;3.40;99.90
24085;DHT22;12268;52.110;5.548;2023-03-01T07:38:08;3.80;99.90
24085;DHT22;12268;52.110;5.548;2023-03-01T07:40:34;3.90;99.90
24085;DHT22;12268;52.110;5.548;2023-03-01T07:43:00;4.10;99.90
24085;DHT22;12268;52.110;5.548;2023-03-01T07:45:26;4.70;99.90
24085;DHT22;12268;52.110;5.548;2023-03-01T07:47:53;5.20;99.90
24085;DHT22;12268;52.110;5.548;2023-03-01T07:50:19;5.30;99.90
24085;DHT22;12268;52.110;5.548;2023-03-01T07:52:46;5.30;99.90
24085;DHT22;12268;52.110;5.548;2023-03-01T07:55:11;5.30;99.90
24085;DHT22;12268;52.110;5.548;2023-03-01T07:57:38;5.60;99.90
24085;DHT22;12268;52.110;5.548;2023-03-01T08:00:04;5.80;99.90
24085;DHT22;12268;52.110;5.548;2023-03-01T08:02:30;6.30;99.90
24085;DHT22;12268;52.110;5.548;2023-03-01T08:04:56;6.70;99.90
24085;DHT22;12268;52.110;5.548;2023-03-01T08:07:22;7.30;99.90
24085;DHT22;12268;52.110;5.548;2023-03-01T08:09:47;7.60;99.90
24085;DHT22;12268;52.110;5.548;2023-03-01T08:12:13;8.00;99.90
24085;DHT22;12268;52.110;5.548;2023-03-01T08:14:38;8.00;99.90
24085;DHT22;12268;52.110;5.548;2023-03-01T08:17:04;7.70;99.90
24085;DHT22;12268;52.110;5.548;2023-03-01T08:19:30;7.80;99.90
24085;DHT22;12268;52.110;5.548;2023-03-01T08:21:55;8.10;99.90
24085;DHT22;12268;52.110;5.548;2023-03-01T08:24:23;8.00;99.90
24085;DHT22;12268;52.110;5.548;2023-03-01T08:26:49;7.80;99.90
24085;DHT22;12268;52.110;5.548;2023-03-01T08:29:15;8.00;99.90
24085;DHT22;12268;52.110;5.548;2023-03-01T08:31:40;8.70;99.90
24085;DHT22;12268;52.110;5.548;2023-03-01T08:34:08;9.00;99.90
24085;DHT22;12268;52.110;5.548;2023-03-01T08:36:39;9.00;99.90
24085;DHT22;12268;52.110;5.548;2023-03-01T08:39:06;9.30;99.90
24085;DHT22;12268;52.110;5.548;2023-03-01T08:41:32;9.80;99.90
24085;DHT22;12268;52.110;5.548;2023-03-01T08:43:58;10.20;99.90
24085;DHT22;12268;52.110;5.548;2023-03-01T08:46:27;10.20;99.90
24085;DHT22;12268;52.110;5.548;2023-03-01T08:48:53;10.10;99.90
24085;DHT22;12268;52.110;5.548;2023-03-01T08:51:20;10.70;99.90
24085;DHT22;12268;52.110;5.548;2023-03-01T08:53:46;11.10;99.90
24085;DHT22;12268;52.110;5.548;2023-03-01T08:56:13;11.40;99.90
24085;DHT22;12268;52.110;5.548;2023-03-01T08:58:38;11.00;99.90
24085;DHT22;12268;52.110;5.548;2023-03-01T09:01:09;11.90;99.90
24085;DHT22;12268;52.110;5.548;2023-03-01T09:03:35;12.60;99.90
24085;DHT22;12268;52.110;5.548;2023-03-01T09:06:03;13.00;99.90
24085;DHT22;12268;52.110;5.548;2023-03-01T09:08:29;14.50;99.90
24085;DHT22;12268;52.110;5.548;2023-03-01T09:10:55;16.00;98.80
24085;DHT22;12268;52.110;5.548;2023-03-01T09:13:20;15.50;95.90
24085;DHT22;12268;52.110;5.548;2023-03-01T09:15:48;15.10;95.20
24085;DHT22;12268;52.110;5.548;2023-03-01T09:18:14;15.00;94.00
24085;DHT22;12268;52.110;5.548;2023-03-01T09:20:39;15.60;95.10
24085;DHT22;12268;52.110;5.548;2023-03-01T09:23:05;14.80;94.80
24085;DHT22;12268;52.110;5.548;2023-03-01T09:25:31;15.70;95.60
24085;DHT22;12268;52.110;5.548;2023-03-01T09:27:56;15.90;92.90
24085;DHT22;12268;52.110;5.548;2023-03-01T09:30:22;15.50;93.00
24085;DHT22;12268;52.110;5.548;2023-03-01T09:32:47;15.10;92.40
24085;DHT22;12268;52.110;5.548;2023-03-01T09:35:13;15.70;94.90
24085;DHT22;12268;52.110;5.548;2023-03-01T09:37:39;14.70;92.60
24085;DHT22;12268;52.110;5.548;2023-03-01T09:40:28;15.10;92.80
24085;DHT22;12268;52.110;5.548;2023-03-01T09:45:41;14.20;92.30
24085;DHT22;12268;52.110;5.548;2023-03-01T09:48:16;14.80;94.10
24085;DHT22;12268;52.110;5.548;2023-03-01T09:50:45;14.80;91.20
24085;DHT22;12268;52.110;5.548;2023-03-01T09:53:21;14.30;91.50
24085;DHT22;12268;52.110;5.548;2023-03-01T09:56:03;14.50;93.70
24085;DHT22;12268;52.110;5.548;2023-03-01T10:06:50;17.00;87.90
24085;DHT22;12268;52.110;5.548;2023-03-01T10:09:17;15.70;90.30
24085;DHT22;12268;52.110;5.548;2023-03-01T10:11:53;16.70;90.20
24085;DHT22;12268;52.110;5.548;2023-03-01T10:14:36;16.90;88.00
24085;DHT22;12268;52.110;5.548;2023-03-01T10:17:04;15.40;83.90
24085;DHT22;12268;52.110;5.548;2023-03-01T10:19:34;14.10;87.10
24085;DHT22;12268;52.110;5.548;2023-03-01T10:22:27;15.40;90.50
24085;DHT22;12268;52.110;5.548;2023-03-01T10:24:54;16.40;86.70
24085;DHT22;12268;52.110;5.548;2023-03-01T10:32:38;16.00;85.20
24085;DHT22;12268;52.110;5.548;2023-03-01T10:35:22;16.70;81.20
24085;DHT22;12268;52.110;5.548;2023-03-01T10:38:18;17.60;83.00
24085;DHT22;12268;52.110;5.548;2023-03-01T10:41:05;17.90;78.70
24085;DHT22;12268;52.110;5.548;2023-03-01T10:43:45;16.70;81.90
24085;DHT22;12268;52.110;5.548;2023-03-01T10:46:35;16.40;82.20
24085;DHT22;12268;52.110;5.548;2023-03-01T10:49:27;17.90;77.50
24085;DHT22;12268;52.110;5.548;2023-03-01T10:51:53;18.20;78.60
24085;DHT22;12268;52.110;5.548;2023-03-01T10:54:25;18.60;71.20
24085;DHT22;12268;52.110;5.548;2023-03-01T10:57:22;17.60;73.00
24085;DHT22;12268;52.110;5.548;2023-03-01T11:00:02;17.60;79.70
24085;DHT22;12268;52.110;5.548;2023-03-01T11:02:30;17.50;74.80
24085;DHT22;12268;52.110;5.548;2023-03-01T11:05:18;18.10;73.90
24085;DHT22;12268;52.110;5.548;2023-03-01T11:07:54;20.20;71.00
24085;DHT22;12268;52.110;5.548;2023-03-01T11:10:32;20.70;70.70
24085;DHT22;12268;52.110;5.548;2023-03-01T11:13:18;21.70;63.60
24085;DHT22;12268;52.110;5.548;2023-03-01T11:15:59;22.40;64.60
24085;DHT22;12268;52.110;5.548;2023-03-01T11:18:26;23.30;58.10
24085;DHT22;12268;52.110;5.548;2023-03-01T11:20:55;22.80;56.10
24085;DHT22;12268;52.110;5.548;2023-03-01T11:23:21;22.60;54.40
24085;DHT22;12268;52.110;5.548;2023-03-01T11:26:00;20.10;55.90
24085;DHT22;12268;52.110;5.548;2023-03-01T11:28:29;17.90;59.90
24085;DHT22;12268;52.110;5.548;2023-03-01T11:31:01;15.90;61.50
24085;DHT22;12268;52.110;5.548;2023-03-01T11:39:05;15.40;65.90
24085;DHT22;12268;52.110;5.548;2023-03-01T11:41:35;14.80;67.50
24085;DHT22;12268;52.110;5.548;2023-03-01T11:44:23;14.20;68.90
24085;DHT22;12268;52.110;5.548;2023-03-01T11:52:43;15.10;67.50
24085;DHT22;12268;52.110;5.548;2023-03-01T12:01:15;16.00;63.80
24085;DHT22;12268;52.110;5.548;2023-03-01T12:06:29;15.00;64.20
24085;DHT22;12268;52.110;5.548;2023-03-01T12:17:32;17.50;63.40
24085;DHT22;12268;52.110;5.548;2023-03-01T12:23:02;17.70;61.90
24085;DHT22;12268;52.110;5.548;2023-03-01T12:25:45;18.20;61.70
24085;DHT22;12268;52.110;5.548;2023-03-01T12:33:44;19.20;58.90
24085;DHT22;12268;52.110;5.548;2023-03-01T12:36:14;20.30;57.40
24085;DHT22;12268;52.110;5.548;2023-03-01T12:38:50;20.00;57.00
24085;DHT22;12268;52.110;5.548;2023-03-01T12:44:01;18.40;56.20
24085;DHT22;12268;52.110;5.548;2023-03-01T12:49:10;15.90;62.40
24085;DHT22;12268;52.110;5.548;2023-03-01T12:51:39;15.30;62.90
24085;DHT22;12268;52.110;5.548;2023-03-01T12:54:19;15.60;64.20
24085;DHT22;12268;52.110;5.548;2023-03-01T12:56:48;16.80;65.20
24085;DHT22;12268;52.110;5.548;2023-03-01T12:59:25;17.40;60.70
24085;DHT22;12268;52.110;5.548;2023-03-01T13:04:35;16.30;64.50
24085;DHT22;12268;52.110;5.548;2023-03-01T13:15:29;15.50;59.70
24085;DHT22;12268;52.110;5.548;2023-03-01T13:20:45;13.60;65.00
24085;DHT22;12268;52.110;5.548;2023-03-01T13:26:11;10.80;70.20
24085;DHT22;12268;52.110;5.548;2023-03-01T13:33:48;10.80;76.10
24085;DHT22;12268;52.110;5.548;2023-03-01T13:49:45;11.60;72.10
24085;DHT22;12268;52.110;5.548;2023-03-01T13:55:44;10.60;71.60
24085;DHT22;12268;52.110;5.548;2023-03-01T13:58:24;10.40;75.70
24085;DHT22;12268;52.110;5.548;2023-03-01T14:01:06;10.30;74.50
24085;DHT22;12268;52.110;5.548;2023-03-01T14:03:33;10.00;75.90
24085;DHT22;12268;52.110;5.548;2023-03-01T14:06:07;9.70;75.70
24085;DHT22;12268;52.110;5.548;2023-03-01T14:08:35;9.40;76.10
24085;DHT22;12268;52.110;5.548;2023-03-01T14:16:46;9.80;75.00
24085;DHT22;12268;52.110;5.548;2023-03-01T14:19:24;10.10;76.10
24085;DHT22;12268;52.110;5.548;2023-03-01T14:22:20;9.70;75.80
24085;DHT22;12268;52.110;5.548;2023-03-01T14:24:50;9.50;77.10
24085;DHT22;12268;52.110;5.548;2023-03-01T14:27:17;9.90;77.80
24085;DHT22;12268;52.110;5.548;2023-03-01T14:29:44;10.20;75.50
24085;DHT22;12268;52.110;5.548;2023-03-01T14:32:23;10.40;77.10
24085;DHT22;12268;52.110;5.548;2023-03-01T14:34:50;10.60;76.50
24085;DHT22;12268;52.110;5.548;2023-03-01T14:37:18;10.80;74.00
24085;DHT22;12268;52.110;5.548;2023-03-01T14:39:44;10.80;75.00
24085;DHT22;12268;52.110;5.548;2023-03-01T14:42:09;10.50;74.80
24085;DHT22;12268;52.110;5.548;2023-03-01T14:44:35;10.50;75.50
24085;DHT22;12268;52.110;5.548;2023-03-01T14:47:03;10.30;78.20
24085;DHT22;12268;52.110;5.548;2023-03-01T14:49:30;10.10;77.80
24085;DHT22;12268;52.110;5.548;2023-03-01T14:52:02;10.10;79.90
24085;DHT22;12268;52.110;5.548;2023-03-01T14:54:41;10.20;79.30
24085;DHT22;12268;52.110;5.548;2023-03-01T14:57:26;9.90;77.70
24085;DHT22;12268;52.110;5.548;2023-03-01T14:59:53;9.60;80.80
24085;DHT22;12268;52.110;5.548;2023-03-01T15:02:22;9.80;80.60
24085;DHT22;12268;52.110;5.548;2023-03-01T15:04:51;10.00;79.70
24085;DHT22;12268;52.110;5.548;2023-03-01T15:07:18;10.30;78.40
24085;DHT22;12268;52.110;5.548;2023-03-01T15:09:45;10.60;78.10
24085;DHT22;12268;52.110;5.548;2023-03-01T15:14:55;10.60;79.40
24085;DHT22;12268;52.110;5.548;2023-03-01T15:17:33;10.40;79.00
24085;DHT22;12268;52.110;5.548;2023-03-01T15:20:00;10.20;80.00
24085;DHT22;12268;52.110;5.548;2023-03-01T15:22:28;10.10;78.80
24085;DHT22;12268;52.110;5.548;2023-03-01T15:24:54;10.20;81.30
24085;DHT22;12268;52.110;5.548;2023-03-01T15:27:22;10.40;79.00
24085;DHT22;12268;52.110;5.548;2023-03-01T15:29:52;10.40;78.80
24085;DHT22;12268;52.110;5.548;2023-03-01T15:34:53;10.10;79.50
24085;DHT22;12268;52.110;5.548;2023-03-01T15:37:38;9.80;79.20
24085;DHT22;12268;52.110;5.548;2023-03-01T15:40:23;9.90;79.90
24085;DHT22;12268;52.110;5.548;2023-03-01T15:43:06;9.90;80.50
24085;DHT22;12268;52.110;5.548;2023-03-01T15:45:33;9.60;79.30
24085;DHT22;12268;52.110;5.548;2023-03-01T15:48:13;9.70;81.30
24085;DHT22;12268;52.110;5.548;2023-03-01T15:50:41;9.70;82.50
24085;DHT22;12268;52.110;5.548;2023-03-01T15:53:13;9.60;82.40
24085;DHT22;12268;52.110;5.548;2023-03-01T15:55:40;9.10;83.70
24085;DHT22;12268;52.110;5.548;2023-03-01T15:58:10;8.90;83.40
24085;DHT22;12268;52.110;5.548;2023-03-01T16:00:37;9.10;85.50
24085;DHT22;12268;52.110;5.548;2023-03-01T16:03:04;8.90;85.80
24085;DHT22;12268;52.110;5.548;2023-03-01T16:05:34;9.00;87.40
24085;DHT22;12268;52.110;5.548;2023-03-01T16:08:00;8.80;84.70
24085;DHT22;12268;52.110;5.548;2023-03-01T16:10:27;8.80;86.20
24085;DHT22;12268;52.110;5.548;2023-03-01T16:12:53;8.90;86.80
24085;DHT22;12268;52.110;5.548;2023-03-01T16:15:36;8.90;86.10
24085;DHT22;12268;52.110;5.548;2023-03-01T16:18:03;9.00;87.10
24085;DHT22;12268;52.110;5.548;2023-03-01T16:20:31;9.10;86.50
24085;DHT22;12268;52.110;5.548;2023-03-01T16:23:05;9.20;85.90
24085;DHT22;12268;52.110;5.548;2023-03-01T16:25:32;9.10;84.40
24085;DHT22;12268;52.110;5.548;2023-03-01T16:27:58;8.80;84.30
24085;DHT22;12268;52.110;5.548;2023-03-01T16:30:27;9.00;85.90
24085;DHT22;12268;52.110;5.548;2023-03-01T16:32:53;8.80;86.10
24085;DHT22;12268;52.110;5.548;2023-03-01T16:35:20;9.00;86.70
24085;DHT22;12268;52.110;5.548;2023-03-01T16:37:46;8.90;87.90
24085;DHT22;12268;52.110;5.548;2023-03-01T16:40:24;9.00;87.90
24085;DHT22;12268;52.110;5.548;2023-03-01T16:42:51;8.80;87.50
24085;DHT22;12268;52.110;5.548;2023-03-01T16:45:18;8.60;88.00
24085;DHT22;12268;52.110;5.548;2023-03-01T16:47:44;8.70;88.50
24085;DHT22;12268;52.110;5.548;2023-03-01T16:50:09;9.00;89.50
24085;DHT22;12268;52.110;5.548;2023-03-01T16:52:35;8.90;88.10
24085;DHT22;12268;52.110;5.548;2023-03-01T16:55:02;8.70;89.00
24085;DHT22;12268;52.110;5.548;2023-03-01T16:57:29;8.60;88.60
24085;DHT22;12268;52.110;5.548;2023-03-01T16:59:55;8.60;88.70
24085;DHT22;12268;52.110;5.548;2023-03-01T17:02:20;8.70;89.50
24085;DHT22;12268;52.110;5.548;2023-03-01T17:04:53;8.50;89.70
24085;DHT22;12268;52.110;5.548;2023-03-01T17:07:19;8.60;89.80
24085;DHT22;12268;52.110;5.548;2023-03-01T17:09:45;8.40;90.00
24085;DHT22;12268;52.110;5.548;2023-03-01T17:12:14;8.50;90.20
24085;DHT22;12268;52.110;5.548;2023-03-01T17:14:40;8.60;90.20
24085;DHT22;12268;52.110;5.548;2023-03-01T17:17:07;8.60;90.10
24085;DHT22;12268;52.110;5.548;2023-03-01T17:19:33;8.50;90.40
24085;DHT22;12268;52.110;5.548;2023-03-01T17:22:03;8.40;91.10
24085;DHT22;12268;52.110;5.548;2023-03-01T17:24:32;8.40;90.50
24085;DHT22;12268;52.110;5.548;2023-03-01T17:26:58;8.30;90.40
24085;DHT22;12268;52.110;5.548;2023-03-01T17:29:24;8.30;90.50
24085;DHT22;12268;52.110;5.548;2023-03-01T17:31:49;8.20;90.30
24085;DHT22;12268;52.110;5.548;2023-03-01T17:34:15;8.10;90.60
24085;DHT22;12268;52.110;5.548;2023-03-01T17:36:41;8.20;90.80
24085;DHT22;12268;52.110;5.548;2023-03-01T17:39:09;8.00;90.50
24085;DHT22;12268;52.110;5.548;2023-03-01T17:41:35;7.90;90.90
24085;DHT22;12268;52.110;5.548;2023-03-01T17:44:01;7.90;91.10
24085;DHT22;12268;52.110;5.548;2023-03-01T17:46:26;7.80;91.10
24085;DHT22;12268;52.110;5.548;2023-03-01T17:48:52;7.80;91.20
24085;DHT22;12268;52.110;5.548;2023-03-01T17:51:17;7.70;91.10
24085;DHT22;12268;52.110;5.548;2023-03-01T17:53:43;7.70;91.60
24085;DHT22;12268;52.110;5.548;2023-03-01T17:56:09;7.50;91.70
24085;DHT22;12268;52.110;5.548;2023-03-01T17:58:36;7.50;91.80
24085;DHT22;12268;52.110;5.548;2023-03-01T18:01:10;7.30;91.60
24085;DHT22;12268;52.110;5.548;2023-03-01T18:03:38;7.30;92.10